Nieuw Amsterdam — PBWQ — position and weather

sailwx.info

Track history (hours):
 
Tides and Currents Weather Stations Pressure Air Temp Water Temp Dewpoint Dewpoint Depression Visibility Wind Speed Wind Dir Waves Ship Positions

Nieuw Amsterdam

Last reported at 2019-May-20 03:58 UTC. Time now 2019-May-20 17:16 UTC.
Position N 54°28' W 131°53'.

Length 285 m; draft 8 m.

Type: Passenger vessel. MMSI: 246648000.

Date/timePositionNaut miles runAvg speedWind from/ knotsBaromVisibWave heightAir tempDewpointWater temp
2019-May-20 03:58N 54°28' W 131°53'1019.1
2019-May-20 03:27N 54°25' W 131°37'818.8
2019-May-20 03:00N 54°23' W 131°23'1019.3
2019-May-20 02:30N 54°21' W 131°07'612.0
2019-May-20 02:01N 54°17' W 130°58'816.0
2019-May-20 01:30N 54°09' W 131°01'917.3
2019-May-20 01:00N 54°01' W 130°59'816.8
2019-May-20 00:30N 53°53' W 130°53'1017.7
2019-May-19 23:58N 53°47' W 130°41'817.7
2019-May-19 23:30N 53°41' W 130°30'916.7
2019-May-19 22:58N 53°36' W 130°18'6917.3
2019-May-19 18:57N 52°43' W 129°03'919.0
2019-May-19 18:28N 52°36' W 128°54'919.1
2019-May-19 18:00N 52°27' W 128°51'1019.3
2019-May-19 17:31N 52°18' W 128°49'918.7
2019-May-19 17:01N 52°08' W 128°48'1019.2
2019-May-19 16:31N 51°59' W 128°46'918.9
2019-May-19 16:00N 51°49' W 128°44'1020.2
2019-May-19 15:31N 51°39' W 128°41'1020.2
2019-May-19 15:01N 51°30' W 128°34'1020.1
2019-May-19 14:31N 51°21' W 128°27'1121.0
2019-May-19 14:00N 51°12' W 128°19'1221.8
2019-May-19 13:28N 51°05' W 128°03'1021.9
2019-May-19 12:59N 50°59' W 127°50'1122.6
2019-May-19 12:30N 50°53' W 127°36'1122.8
2019-May-19 12:00N 50°48' W 127°19'1121.9
2019-May-19 11:30N 50°44' W 127°03'1121.3
2019-May-19 10:59N 50°38' W 126°48'816.0
2019-May-19 10:27N 50°32' W 126°40'919.0
2019-May-19 09:59N 50°30' W 126°26'3917.9
2019-May-19 07:49N 50°20' W 125°27'514.5
2019-May-19 07:30N 50°16' W 125°24'816.8
2019-May-19 07:01N 50°08' W 125°21'714.6
2019-May-19 06:31N 50°03' W 125°14'714.7
2019-May-19 06:00N 49°56' W 125°07'714.8
2019-May-19 05:30N 49°51' W 124°59'714.8
2019-May-19 05:00N 49°46' W 124°51'714.9
2019-May-19 04:30N 49°41' W 124°43'815.1
2019-May-19 04:00N 49°36' W 124°35'715.0
2019-May-19 03:31N 49°30' W 124°26'714.9
2019-May-19 03:01N 49°26' W 124°18'815.0
2019-May-19 02:30N 49°23' W 124°07'815.7
2019-May-19 02:00N 49°21' W 123°55'816.0
2019-May-19 01:31N 49°19' W 123°43'815.2
2019-May-19 01:00N 49°19' W 123°31'815.4
2019-May-19 00:31N 49°19' W 123°20'714.4
2019-May-19 00:00N 49°19' W 123°08'2 3.9
2019-May-18 23:30N 49°17' W 123°07'0 0.0
2019-May-18 22:57N 49°17' W 123°07'0 0.0
2019-May-18 22:28N 49°17' W 123°07'0 0.0
2019-May-18 21:56N 49°17' W 123°07'0 0.0
2019-May-18 21:28N 49°17' W 123°07'0 0.0
2019-May-18 20:58N 49°17' W 123°07'0 0.0
2019-May-18 20:28N 49°17' W 123°07'0 0.0
2019-May-18 20:00N 49°17' W 123°07'0 0.0
2019-May-18 19:29N 49°17' W 123°07'0 0.0
2019-May-18 18:58N 49°17' W 123°07'0 0.0
2019-May-18 18:24N 49°17' W 123°07'0 0.0
2019-May-18 17:59N 49°17' W 123°07'0 0.0
2019-May-18 17:30N 49°17' W 123°07'0 0.0
2019-May-18 17:00N 49°17' W 123°07'0 0.0
2019-May-18 16:29N 49°17' W 123°07'0 0.0
2019-May-18 15:58N 49°17' W 123°07'0 0.0
2019-May-18 15:13N 49°17' W 123°07'0 0.0
2019-May-18 14:49N 49°17' W 123°07'0 0.0
2019-May-18 14:22N 49°17' W 123°07'0 0.2
2019-May-18 14:00N 49°17' W 123°07'1 2.5
2019-May-18 13:30N 49°19' W 123°08'611.5
2019-May-18 13:01N 49°19' W 123°16'917.7
2019-May-18 12:30N 49°19' W 123°30'816.9
2019-May-18 12:00N 49°18' W 123°43'816.6
2019-May-18 11:30N 49°21' W 123°55'817.0
2019-May-18 11:01N 49°23' W 124°08'816.7
2019-May-18 10:30N 49°25' W 124°20'816.4
2019-May-18 10:00N 49°30' W 124°30'816.6
2019-May-18 09:31N 49°36' W 124°39'816.4
2019-May-18 09:00N 49°42' W 124°47'816.4
2019-May-18 08:31N 49°48' W 124°56'816.8
2019-May-18 08:01N 49°54' W 125°05'815.8
2019-May-18 07:30N 50°01' W 125°13'815.2
2019-May-18 07:00N 50°07' W 125°19'611.4
2019-May-18 06:30N 50°12' W 125°23'5 8.9
2019-May-18 05:59N 50°17' W 125°24'810.0
2019-May-18 05:09N 50°22' W 125°34'411.6
2019-May-18 04:48N 50°22' W 125°40'411.4
2019-May-18 04:29N 50°22' W 125°46'2212.2
2019-May-18 02:41N 50°29' W 126°19'913.7
2019-May-18 02:03N 50°30' W 126°32'214.0
2019-May-18 01:55N 50°30' W 126°35'712.9
2019-May-18 01:22N 50°36' W 126°43'514.8
2019-May-18 01:00N 50°39' W 126°49'816.9
2019-May-18 00:30N 50°43' W 127°01'816.9
2019-May-18 00:00N 50°47' W 127°13'816.8
2019-May-17 23:30N 50°50' W 127°25'816.2
2019-May-17 23:00N 50°53' W 127°37'816.5
2019-May-17 22:30N 50°58' W 127°47'612.0
2019-May-17 22:00N 51°02' W 127°55'713.4
2019-May-17 21:30N 51°06' W 128°04'714.0
2019-May-17 21:01N 51°10' W 128°13'714.3
2019-May-17 20:31N 51°14' W 128°22'714.2
2019-May-17 20:01N 51°18' W 128°31'713.7
2019-May-17 19:30N 51°23' W 128°39'713.8
2019-May-17 19:00N 51°29' W 128°45'714.3
2019-May-17 18:30N 51°34' W 128°52'714.2
2019-May-17 18:00N 51°40' W 128°59'713.8
2019-May-17 17:30N 51°46' W 129°05'713.8
2019-May-17 17:00N 51°51' W 129°12'7514.9
2019-May-17 12:00N 52°54' W 130°18'3718.6 070 / 101003.810.8 9.0 12.0
2019-May-17 10:01N 53°26' W 130°48'260.2
2019-May-17 10:00N 53°24' W 130°48'1221.4 060 / 51004.110.8 9.0 12.0
2019-May-17 09:25N 53°36' W 130°52'717.2
2019-May-17 09:00N 53°43' W 130°55'816.7
2019-May-17 08:30N 53°51' W 130°58'816.0
2019-May-17 08:00N 53°59' W 130°59'816.4
2019-May-17 07:30N 54°07' W 131°01'816.9
2019-May-17 07:00N 54°16' W 131°03'917.1
2019-May-17 06:30N 54°24' W 131°08'1116.8
2019-May-17 05:51N 54°34' W 131°15'3214.5
2019-May-17 03:36N 55°06' W 131°09'257 9.5
2019-May-16 00:36N 58°18' W 136°19'320.2
2019-May-16 00:27N 58°18' W 136°14'817.7
2019-May-16 00:01N 58°22' W 136°01'611.4
2019-May-15 23:30N 58°27' W 136°02'917.3
2019-May-15 23:00N 58°36' W 136°04'816.4
2019-May-15 22:30N 58°43' W 136°14'815.9
2019-May-15 21:59N 58°48' W 136°26'2 0.3
2019-May-15 16:10N 58°47' W 136°23'315.5
2019-May-15 16:00N 58°45' W 136°19'815.3
2019-May-15 15:30N 58°40' W 136°09'715.0
2019-May-15 15:01N 58°33' W 136°04'715.0
2019-May-15 14:30N 58°26' W 135°58'612.4
2019-May-15 14:00N 58°20' W 135°56'510.8
2019-May-15 13:30N 58°18' W 135°46'611.2
2019-May-15 12:59N 58°16' W 135°36'510.9
2019-May-15 12:30N 58°14' W 135°27'611.5
2019-May-15 12:00N 58°12' W 135°16'2143.7
2019-May-15 12:00N 58°12' W 135°12'9 9.5 090 / 101014.310.8 9.0 6.913.0
2019-May-15 11:00N 58°12' W 134°54'121 2.6 150 / 21013.3 5.4 9.0 11.8
2019-May-13 12:00N 56°12' W 134°24'10218.2 010 / 231016.010.8 9.0-1.413.0
2019-May-13 06:24N 54°41' W 133°02'1818.3
2019-May-13 05:24N 54°33' W 132°34'819.0
2019-May-13 05:00N 54°32' W 132°21'918.7
2019-May-13 04:30N 54°29' W 132°06'918.8
2019-May-13 04:01N 54°27' W 131°50'918.1
2019-May-13 03:30N 54°25' W 131°35'918.1
2019-May-13 03:01N 54°23' W 131°20'917.7
2019-May-13 02:31N 54°20' W 131°05'510.0
2019-May-13 02:00N 54°17' W 130°59'918.7
2019-May-13 01:30N 54°08' W 131°00'1020.2
2019-May-13 01:01N 53°58' W 130°59'1020.1
2019-May-13 00:30N 53°50' W 130°48'1120.5
2019-May-12 23:59N 53°43' W 130°34'8618.6
2019-May-12 19:24N 52°40' W 128°59'1919.1
2019-May-12 18:25N 52°22' W 128°50'820.1
2019-May-12 18:00N 52°13' W 128°48'1019.8
2019-May-12 17:30N 52°04' W 128°45'1019.2
2019-May-12 17:00N 51°54' W 128°43'1019.2
2019-May-12 16:30N 51°45' W 128°41'1019.1
2019-May-12 16:00N 51°35' W 128°37'1019.5
2019-May-12 15:30N 51°27' W 128°30'1019.7
2019-May-12 15:00N 51°18' W 128°24'1219.4
2019-May-12 14:23N 51°09' W 128°11'820.2
2019-May-12 13:59N 51°04' W 128°00'1020.6
2019-May-12 13:30N 50°58' W 127°47'1020.8
2019-May-12 13:01N 50°52' W 127°34'1020.6
2019-May-12 12:31N 50°48' W 127°19'1020.8
2019-May-12 12:00N 50°44' W 127°04'1020.5
2019-May-12 11:30N 50°39' W 126°50'916.8
2019-May-12 10:59N 50°32' W 126°41'815.8
2019-May-12 10:28N 50°30' W 126°29'3718.0
2019-May-12 08:23N 50°21' W 125°32'513.5
2019-May-12 08:00N 50°18' W 125°25'816.4
2019-May-12 07:30N 50°10' W 125°22'612.3
2019-May-12 07:01N 50°05' W 125°16'713.2
2019-May-12 06:30N 49°59' W 125°12'815.5
2019-May-12 06:00N 49°54' W 125°04'917.3
2019-May-12 05:31N 49°48' W 124°54'917.1
2019-May-12 05:00N 49°42' W 124°45'816.6
2019-May-12 04:30N 49°36' W 124°35'714.3
2019-May-12 04:00N 49°31' W 124°27'713.8
2019-May-12 03:30N 49°26' W 124°20'714.0
2019-May-12 03:01N 49°24' W 124°10'714.2
2019-May-12 02:31N 49°22' W 123°59'714.5
2019-May-12 02:01N 49°21' W 123°48'714.6
2019-May-12 01:31N 49°19' W 123°38'714.6
2019-May-12 01:00N 49°19' W 123°26'714.7
2019-May-12 00:31N 49°19' W 123°15'611.5
2019-May-12 00:00N 49°18' W 123°06'1 1.3
2019-May-11 23:30N 49°17' W 123°07'0 0.0
2019-May-11 23:00N 49°17' W 123°07'0 0.0
2019-May-11 22:30N 49°17' W 123°07'0 0.0
2019-May-11 22:00N 49°17' W 123°07'0 0.0
2019-May-11 21:29N 49°17' W 123°07'0 0.0
2019-May-11 20:58N 49°17' W 123°07'0 0.0
2019-May-11 20:25N 49°17' W 123°07'0 0.0
2019-May-11 19:58N 49°17' W 123°07'0 0.0
2019-May-11 19:28N 49°17' W 123°07'0 0.0
2019-May-11 18:58N 49°17' W 123°07'0 0.0
2019-May-11 18:28N 49°17' W 123°07'0 0.0
2019-May-11 17:57N 49°17' W 123°07'0 0.0
2019-May-11 17:30N 49°17' W 123°07'0 0.0
2019-May-11 16:56N 49°17' W 123°07'0 0.0
2019-May-11 16:29N 49°17' W 123°07'0 0.0
2019-May-11 15:58N 49°17' W 123°07'0 0.0
2019-May-11 15:28N 49°17' W 123°07'0 0.0
2019-May-11 15:00N 49°17' W 123°07'0 0.0
2019-May-11 14:29N 49°17' W 123°07'0 0.0
2019-May-11 14:00N 49°17' W 123°07'0 0.4
2019-May-11 13:31N 49°18' W 123°07'4 7.4
2019-May-11 13:00N 49°19' W 123°12'816.4
2019-May-11 12:30N 49°19' W 123°24'815.4
2019-May-11 12:00N 49°19' W 123°36'714.5
2019-May-11 11:30N 49°19' W 123°47'713.3
2019-May-11 11:00N 49°21' W 123°57'713.6
2019-May-11 10:30N 49°23' W 124°07'713.7
2019-May-11 10:00N 49°25' W 124°17'713.3
2019-May-11 09:30N 49°28' W 124°26'713.3
2019-May-11 09:00N 49°33' W 124°33'713.7
2019-May-11 08:30N 49°38' W 124°40'713.5
2019-May-11 08:00N 49°43' W 124°48'613.1
2019-May-11 07:30N 49°47' W 124°54'713.2
2019-May-11 07:00N 49°52' W 125°02'713.1
2019-May-11 06:30N 49°57' W 125°08'613.0
2019-May-11 06:01N 50°02' W 125°14'714.3
2019-May-11 05:30N 50°08' W 125°21'713.9
2019-May-11 05:00N 50°15' W 125°23'813.7
2019-May-11 04:26N 50°21' W 125°31'1017.3
2019-May-11 03:50N 50°22' W 125°47'1717.5
2019-May-11 02:51N 50°29' W 126°12'718.8
2019-May-11 02:28N 50°30' W 126°23'918.6
2019-May-11 02:00N 50°31' W 126°36'713.6
2019-May-11 01:29N 50°36' W 126°44'715.4
2019-May-11 01:01N 50°41' W 126°53'815.7
2019-May-11 00:30N 50°44' W 127°04'815.7
2019-May-11 00:00N 50°47' W 127°16'815.6
2019-May-10 23:30N 50°50' W 127°27'815.3
2019-May-10 23:00N 50°54' W 127°37'715.0
2019-May-10 22:31N 50°58' W 127°47'713.2
2019-May-10 22:00N 51°02' W 127°56'815.0
2019-May-10 21:30N 51°06' W 128°05'714.8
2019-May-10 21:00N 51°11' W 128°15'714.6
2019-May-10 20:30N 51°15' W 128°24'714.6
2019-May-10 20:00N 51°19' W 128°34'714.9
2019-May-10 19:30N 51°25' W 128°41'714.4
2019-May-10 19:00N 51°31' W 128°48'714.4
2019-May-10 18:30N 51°37' W 128°55'714.6
2019-May-10 18:00N 51°43' W 129°02'714.7
2019-May-10 17:30N 51°48' W 129°09'815.3
2019-May-10 17:00N 51°54' W 129°17'815.8
2019-May-10 16:30N 52°01' W 129°24'816.0
2019-May-10 16:00N 52°07' W 129°32'816.0
2019-May-10 15:31N 52°13' W 129°40'1115.5
2019-May-10 14:47N 52°23' W 129°51'515.7
2019-May-10 14:29N 52°27' W 129°54'915.5
2019-May-10 13:54N 52°35' W 130°01'715.7
2019-May-10 13:29N 52°41' W 130°07'1115.7
2019-May-10 12:48N 52°50' W 130°15'1415.9
2019-May-10 11:54N 53°03' W 130°27'815.8
2019-May-10 11:25N 53°09' W 130°33'615.8
2019-May-10 11:00N 53°15' W 130°38'3241.4
2019-May-10 11:00N 53°12' W 130°36'1122.6 310 / 131017.910.8 10.0 7.913.0
2019-May-10 10:30N 53°22' W 130°44'815.5
2019-May-10 10:00N 53°29' W 130°49'815.4
2019-May-10 09:30N 53°36' W 130°52'815.5
2019-May-10 09:01N 53°44' W 130°54'815.5
2019-May-10 08:30N 53°52' W 130°57'815.5
2019-May-10 08:00N 53°59' W 130°59'815.6
2019-May-10 07:30N 54°07' W 131°01'815.7
2019-May-10 07:00N 54°15' W 131°03'714.9
2019-May-10 06:30N 54°22' W 131°06'714.4
2019-May-10 06:00N 54°28' W 131°12'714.6
2019-May-10 05:30N 54°35' W 131°17'815.2
2019-May-10 04:57N 54°43' W 131°13'715.0
2019-May-10 04:30N 54°50' W 131°10'815.2
2019-May-10 04:00N 54°57' W 131°07'  
Track history (hours):
 
Tides and Currents Weather Stations Pressure Air Temp Water Temp Dewpoint Dewpoint Depression Visibility Wind Speed Wind Dir Waves Ship Positions

Nieuw Amsterdam

Last reported at 2019-May-20 03:58 UTC. Time now 2019-May-20 17:16 UTC.
Position N 54°28' W 131°53'.

Length 285 m; draft 8 m.

Type: Passenger vessel. MMSI: 246648000.

Date/timePositionNaut miles runAvg speedWind from/ knotsBaromVisibWave heightAir tempDewpointWater temp
2019-May-20 03:58N 54°28' W 131°53'1019.1
2019-May-20 03:27N 54°25' W 131°37'818.8
2019-May-20 03:00N 54°23' W 131°23'1019.3
2019-May-20 02:30N 54°21' W 131°07'612.0
2019-May-20 02:01N 54°17' W 130°58'816.0
2019-May-20 01:30N 54°09' W 131°01'917.3
2019-May-20 01:00N 54°01' W 130°59'816.8
2019-May-20 00:30N 53°53' W 130°53'1017.7
2019-May-19 23:58N 53°47' W 130°41'817.7
2019-May-19 23:30N 53°41' W 130°30'916.7
2019-May-19 22:58N 53°36' W 130°18'6917.3
2019-May-19 18:57N 52°43' W 129°03'919.0
2019-May-19 18:28N 52°36' W 128°54'919.1
2019-May-19 18:00N 52°27' W 128°51'1019.3
2019-May-19 17:31N 52°18' W 128°49'918.7
2019-May-19 17:01N 52°08' W 128°48'1019.2
2019-May-19 16:31N 51°59' W 128°46'918.9
2019-May-19 16:00N 51°49' W 128°44'1020.2
2019-May-19 15:31N 51°39' W 128°41'1020.2
2019-May-19 15:01N 51°30' W 128°34'1020.1
2019-May-19 14:31N 51°21' W 128°27'1121.0
2019-May-19 14:00N 51°12' W 128°19'1221.8
2019-May-19 13:28N 51°05' W 128°03'1021.9
2019-May-19 12:59N 50°59' W 127°50'1122.6
2019-May-19 12:30N 50°53' W 127°36'1122.8
2019-May-19 12:00N 50°48' W 127°19'1121.9
2019-May-19 11:30N 50°44' W 127°03'1121.3
2019-May-19 10:59N 50°38' W 126°48'816.0
2019-May-19 10:27N 50°32' W 126°40'919.0
2019-May-19 09:59N 50°30' W 126°26'3917.9
2019-May-19 07:49N 50°20' W 125°27'514.5
2019-May-19 07:30N 50°16' W 125°24'816.8
2019-May-19 07:01N 50°08' W 125°21'714.6
2019-May-19 06:31N 50°03' W 125°14'714.7
2019-May-19 06:00N 49°56' W 125°07'714.8
2019-May-19 05:30N 49°51' W 124°59'714.8
2019-May-19 05:00N 49°46' W 124°51'714.9
2019-May-19 04:30N 49°41' W 124°43'815.1
2019-May-19 04:00N 49°36' W 124°35'715.0
2019-May-19 03:31N 49°30' W 124°26'714.9
2019-May-19 03:01N 49°26' W 124°18'815.0
2019-May-19 02:30N 49°23' W 124°07'815.7
2019-May-19 02:00N 49°21' W 123°55'816.0
2019-May-19 01:31N 49°19' W 123°43'815.2
2019-May-19 01:00N 49°19' W 123°31'815.4
2019-May-19 00:31N 49°19' W 123°20'714.4
2019-May-19 00:00N 49°19' W 123°08'2 3.9
2019-May-18 23:30N 49°17' W 123°07'0 0.0
2019-May-18 22:57N 49°17' W 123°07'0 0.0
2019-May-18 22:28N 49°17' W 123°07'0 0.0
2019-May-18 21:56N 49°17' W 123°07'0 0.0
2019-May-18 21:28N 49°17' W 123°07'0 0.0
2019-May-18 20:58N 49°17' W 123°07'0 0.0
2019-May-18 20:28N 49°17' W 123°07'0 0.0
2019-May-18 20:00N 49°17' W 123°07'0 0.0
2019-May-18 19:29N 49°17' W 123°07'0 0.0
2019-May-18 18:58N 49°17' W 123°07'0 0.0
2019-May-18 18:24N 49°17' W 123°07'0 0.0
2019-May-18 17:59N 49°17' W 123°07'0 0.0
2019-May-18 17:30N 49°17' W 123°07'0 0.0
2019-May-18 17:00N 49°17' W 123°07'0 0.0
2019-May-18 16:29N 49°17' W 123°07'0 0.0
2019-May-18 15:58N 49°17' W 123°07'0 0.0
2019-May-18 15:13N 49°17' W 123°07'0 0.0
2019-May-18 14:49N 49°17' W 123°07'0 0.0
2019-May-18 14:22N 49°17' W 123°07'0 0.2
2019-May-18 14:00N 49°17' W 123°07'1 2.5
2019-May-18 13:30N 49°19' W 123°08'611.5
2019-May-18 13:01N 49°19' W 123°16'917.7
2019-May-18 12:30N 49°19' W 123°30'816.9
2019-May-18 12:00N 49°18' W 123°43'816.6
2019-May-18 11:30N 49°21' W 123°55'817.0
2019-May-18 11:01N 49°23' W 124°08'816.7
2019-May-18 10:30N 49°25' W 124°20'816.4
2019-May-18 10:00N 49°30' W 124°30'816.6
2019-May-18 09:31N 49°36' W 124°39'816.4
2019-May-18 09:00N 49°42' W 124°47'816.4
2019-May-18 08:31N 49°48' W 124°56'816.8
2019-May-18 08:01N 49°54' W 125°05'815.8
2019-May-18 07:30N 50°01' W 125°13'815.2
2019-May-18 07:00N 50°07' W 125°19'611.4
2019-May-18 06:30N 50°12' W 125°23'5 8.9
2019-May-18 05:59N 50°17' W 125°24'810.0
2019-May-18 05:09N 50°22' W 125°34'411.6
2019-May-18 04:48N 50°22' W 125°40'411.4
2019-May-18 04:29N 50°22' W 125°46'2212.2
2019-May-18 02:41N 50°29' W 126°19'913.7
2019-May-18 02:03N 50°30' W 126°32'214.0
2019-May-18 01:55N 50°30' W 126°35'712.9
2019-May-18 01:22N 50°36' W 126°43'514.8
2019-May-18 01:00N 50°39' W 126°49'816.9
2019-May-18 00:30N 50°43' W 127°01'816.9
2019-May-18 00:00N 50°47' W 127°13'816.8
2019-May-17 23:30N 50°50' W 127°25'816.2
2019-May-17 23:00N 50°53' W 127°37'816.5
2019-May-17 22:30N 50°58' W 127°47'612.0
2019-May-17 22:00N 51°02' W 127°55'713.4
2019-May-17 21:30N 51°06' W 128°04'714.0
2019-May-17 21:01N 51°10' W 128°13'714.3
2019-May-17 20:31N 51°14' W 128°22'714.2
2019-May-17 20:01N 51°18' W 128°31'713.7
2019-May-17 19:30N 51°23' W 128°39'713.8
2019-May-17 19:00N 51°29' W 128°45'714.3
2019-May-17 18:30N 51°34' W 128°52'714.2
2019-May-17 18:00N 51°40' W 128°59'713.8
2019-May-17 17:30N 51°46' W 129°05'713.8
2019-May-17 17:00N 51°51' W 129°12'7514.9
2019-May-17 12:00N 52°54' W 130°18'3718.6 070 / 101003.810.8 9.0 12.0
2019-May-17 10:01N 53°26' W 130°48'260.2
2019-May-17 10:00N 53°24' W 130°48'1221.4 060 / 51004.110.8 9.0 12.0
2019-May-17 09:25N 53°36' W 130°52'717.2
2019-May-17 09:00N 53°43' W 130°55'816.7
2019-May-17 08:30N 53°51' W 130°58'816.0
2019-May-17 08:00N 53°59' W 130°59'816.4
2019-May-17 07:30N 54°07' W 131°01'816.9
2019-May-17 07:00N 54°16' W 131°03'917.1
2019-May-17 06:30N 54°24' W 131°08'1116.8
2019-May-17 05:51N 54°34' W 131°15'3214.5
2019-May-17 03:36N 55°06' W 131°09'257 9.5
2019-May-16 00:36N 58°18' W 136°19'320.2
2019-May-16 00:27N 58°18' W 136°14'817.7
2019-May-16 00:01N 58°22' W 136°01'611.4
2019-May-15 23:30N 58°27' W 136°02'917.3
2019-May-15 23:00N 58°36' W 136°04'816.4
2019-May-15 22:30N 58°43' W 136°14'815.9
2019-May-15 21:59N 58°48' W 136°26'2 0.3
2019-May-15 16:10N 58°47' W 136°23'315.5
2019-May-15 16:00N 58°45' W 136°19'815.3
2019-May-15 15:30N 58°40' W 136°09'715.0
2019-May-15 15:01N 58°33' W 136°04'715.0
2019-May-15 14:30N 58°26' W 135°58'612.4
2019-May-15 14:00N 58°20' W 135°56'510.8
2019-May-15 13:30N 58°18' W 135°46'611.2
2019-May-15 12:59N 58°16' W 135°36'510.9
2019-May-15 12:30N 58°14' W 135°27'611.5
2019-May-15 12:00N 58°12' W 135°16'2143.7
2019-May-15 12:00N 58°12' W 135°12'9 9.5 090 / 101014.310.8 9.0 6.913.0
2019-May-15 11:00N 58°12' W 134°54'121 2.6 150 / 21013.3 5.4 9.0 11.8
2019-May-13 12:00N 56°12' W 134°24'10218.2 010 / 231016.010.8 9.0-1.413.0
2019-May-13 06:24N 54°41' W 133°02'1818.3
2019-May-13 05:24N 54°33' W 132°34'819.0
2019-May-13 05:00N 54°32' W 132°21'918.7
2019-May-13 04:30N 54°29' W 132°06'918.8
2019-May-13 04:01N 54°27' W 131°50'918.1
2019-May-13 03:30N 54°25' W 131°35'918.1
2019-May-13 03:01N 54°23' W 131°20'917.7
2019-May-13 02:31N 54°20' W 131°05'510.0
2019-May-13 02:00N 54°17' W 130°59'918.7
2019-May-13 01:30N 54°08' W 131°00'1020.2
2019-May-13 01:01N 53°58' W 130°59'1020.1
2019-May-13 00:30N 53°50' W 130°48'1120.5
2019-May-12 23:59N 53°43' W 130°34'8618.6
2019-May-12 19:24N 52°40' W 128°59'1919.1
2019-May-12 18:25N 52°22' W 128°50'820.1
2019-May-12 18:00N 52°13' W 128°48'1019.8
2019-May-12 17:30N 52°04' W 128°45'1019.2
2019-May-12 17:00N 51°54' W 128°43'1019.2
2019-May-12 16:30N 51°45' W 128°41'1019.1
2019-May-12 16:00N 51°35' W 128°37'1019.5
2019-May-12 15:30N 51°27' W 128°30'1019.7
2019-May-12 15:00N 51°18' W 128°24'1219.4
2019-May-12 14:23N 51°09' W 128°11'820.2
2019-May-12 13:59N 51°04' W 128°00'1020.6
2019-May-12 13:30N 50°58' W 127°47'1020.8
2019-May-12 13:01N 50°52' W 127°34'1020.6
2019-May-12 12:31N 50°48' W 127°19'1020.8
2019-May-12 12:00N 50°44' W 127°04'1020.5
2019-May-12 11:30N 50°39' W 126°50'916.8
2019-May-12 10:59N 50°32' W 126°41'815.8
2019-May-12 10:28N 50°30' W 126°29'3718.0
2019-May-12 08:23N 50°21' W 125°32'513.5
2019-May-12 08:00N 50°18' W 125°25'816.4
2019-May-12 07:30N 50°10' W 125°22'612.3
2019-May-12 07:01N 50°05' W 125°16'713.2
2019-May-12 06:30N 49°59' W 125°12'815.5
2019-May-12 06:00N 49°54' W 125°04'917.3
2019-May-12 05:31N 49°48' W 124°54'917.1
2019-May-12 05:00N 49°42' W 124°45'816.6
2019-May-12 04:30N 49°36' W 124°35'714.3
2019-May-12 04:00N 49°31' W 124°27'713.8
2019-May-12 03:30N 49°26' W 124°20'714.0
2019-May-12 03:01N 49°24' W 124°10'714.2
2019-May-12 02:31N 49°22' W 123°59'714.5
2019-May-12 02:01N 49°21' W 123°48'714.6
2019-May-12 01:31N 49°19' W 123°38'714.6
2019-May-12 01:00N 49°19' W 123°26'714.7
2019-May-12 00:31N 49°19' W 123°15'611.5
2019-May-12 00:00N 49°18' W 123°06'1 1.3
2019-May-11 23:30N 49°17' W 123°07'0 0.0
2019-May-11 23:00N 49°17' W 123°07'0 0.0
2019-May-11 22:30N 49°17' W 123°07'0 0.0
2019-May-11 22:00N 49°17' W 123°07'0 0.0
2019-May-11 21:29N 49°17' W 123°07'0 0.0
2019-May-11 20:58N 49°17' W 123°07'0 0.0
2019-May-11 20:25N 49°17' W 123°07'0 0.0
2019-May-11 19:58N 49°17' W 123°07'0 0.0
2019-May-11 19:28N 49°17' W 123°07'0 0.0
2019-May-11 18:58N 49°17' W 123°07'0 0.0
2019-May-11 18:28N 49°17' W 123°07'0 0.0
2019-May-11 17:57N 49°17' W 123°07'0 0.0
2019-May-11 17:30N 49°17' W 123°07'0 0.0
2019-May-11 16:56N 49°17' W 123°07'0 0.0
2019-May-11 16:29N 49°17' W 123°07'0 0.0
2019-May-11 15:58N 49°17' W 123°07'0 0.0
2019-May-11 15:28N 49°17' W 123°07'0 0.0
2019-May-11 15:00N 49°17' W 123°07'0 0.0
2019-May-11 14:29N 49°17' W 123°07'0 0.0
2019-May-11 14:00N 49°17' W 123°07'0 0.4
2019-May-11 13:31N 49°18' W 123°07'4 7.4
2019-May-11 13:00N 49°19' W 123°12'816.4
2019-May-11 12:30N 49°19' W 123°24'815.4
2019-May-11 12:00N 49°19' W 123°36'714.5
2019-May-11 11:30N 49°19' W 123°47'713.3
2019-May-11 11:00N 49°21' W 123°57'713.6
2019-May-11 10:30N 49°23' W 124°07'713.7
2019-May-11 10:00N 49°25' W 124°17'713.3
2019-May-11 09:30N 49°28' W 124°26'713.3
2019-May-11 09:00N 49°33' W 124°33'713.7
2019-May-11 08:30N 49°38' W 124°40'713.5
2019-May-11 08:00N 49°43' W 124°48'613.1
2019-May-11 07:30N 49°47' W 124°54'713.2
2019-May-11 07:00N 49°52' W 125°02'713.1
2019-May-11 06:30N 49°57' W 125°08'613.0
2019-May-11 06:01N 50°02' W 125°14'714.3
2019-May-11 05:30N 50°08' W 125°21'713.9
2019-May-11 05:00N 50°15' W 125°23'813.7
2019-May-11 04:26N 50°21' W 125°31'1017.3
2019-May-11 03:50N 50°22' W 125°47'1717.5
2019-May-11 02:51N 50°29' W 126°12'718.8
2019-May-11 02:28N 50°30' W 126°23'918.6
2019-May-11 02:00N 50°31' W 126°36'713.6
2019-May-11 01:29N 50°36' W 126°44'715.4
2019-May-11 01:01N 50°41' W 126°53'815.7
2019-May-11 00:30N 50°44' W 127°04'815.7
2019-May-11 00:00N 50°47' W 127°16'815.6
2019-May-10 23:30N 50°50' W 127°27'815.3
2019-May-10 23:00N 50°54' W 127°37'715.0
2019-May-10 22:31N 50°58' W 127°47'713.2
2019-May-10 22:00N 51°02' W 127°56'815.0
2019-May-10 21:30N 51°06' W 128°05'714.8
2019-May-10 21:00N 51°11' W 128°15'714.6
2019-May-10 20:30N 51°15' W 128°24'714.6
2019-May-10 20:00N 51°19' W 128°34'714.9
2019-May-10 19:30N 51°25' W 128°41'714.4
2019-May-10 19:00N 51°31' W 128°48'714.4
2019-May-10 18:30N 51°37' W 128°55'714.6
2019-May-10 18:00N 51°43' W 129°02'714.7
2019-May-10 17:30N 51°48' W 129°09'815.3
2019-May-10 17:00N 51°54' W 129°17'815.8
2019-May-10 16:30N 52°01' W 129°24'816.0
2019-May-10 16:00N 52°07' W 129°32'816.0
2019-May-10 15:31N 52°13' W 129°40'1115.5
2019-May-10 14:47N 52°23' W 129°51'515.7
2019-May-10 14:29N 52°27' W 129°54'915.5
2019-May-10 13:54N 52°35' W 130°01'715.7
2019-May-10 13:29N 52°41' W 130°07'1115.7
2019-May-10 12:48N 52°50' W 130°15'1415.9
2019-May-10 11:54N 53°03' W 130°27'815.8
2019-May-10 11:25N 53°09' W 130°33'615.8
2019-May-10 11:00N 53°15' W 130°38'3241.4
2019-May-10 11:00N 53°12' W 130°36'1122.6 310 / 131017.910.8 10.0 7.913.0
2019-May-10 10:30N 53°22' W 130°44'815.5
2019-May-10 10:00N 53°29' W 130°49'815.4
2019-May-10 09:30N 53°36' W 130°52'815.5
2019-May-10 09:01N 53°44' W 130°54'815.5
2019-May-10 08:30N 53°52' W 130°57'815.5
2019-May-10 08:00N 53°59' W 130°59'815.6
2019-May-10 07:30N 54°07' W 131°01'815.7
2019-May-10 07:00N 54°15' W 131°03'714.9
2019-May-10 06:30N 54°22' W 131°06'714.4
2019-May-10 06:00N 54°28' W 131°12'714.6
2019-May-10 05:30N 54°35' W 131°17'815.2
2019-May-10 04:57N 54°43' W 131°13'715.0
2019-May-10 04:30N 54°50' W 131°10'815.2
2019-May-10 04:00N 54°57' W 131°07'  

Dump ship's entire track history